上海/浦東 の空港の天気 - METARとTAF

上海浦東国際空港 ( ZSPD / PVG ) - 中国 上海市
飛行場実況気象(Metar)
観測時間11/15 01:30 CST (11/14 17:30 UTC)
風向・風速東北東 3m/s
視程10km以上
天気現象
なし
気温15℃
湿度72%
気圧1022hPa
METARZSPD 141730Z 07003MPS 010V090 CAVOK 15/10 Q1022 NOSIG
過去の天気等 Google飛行場航空写真 Wunderground天気予報

過去48時間のMETAR

飛行場予報(TAF)
発表時間: 11/14 23:10 CST (11/14 15:10 UTC)
予報対象時間: 15日2時 CST ~ 16日2時 CST
風向・風速東 4m/s
視程5000m
天気現象もや
全天の8割程度の雲 雲底高度 610m
TAF ZSPD 141510Z 1418/1518 08004MPS 5000 BR BKN020 TX19/1506Z TN11/1421Z